sensor_id;sensor_type;location;lat;lon;timestamp;temperature;humidity
73939;DHT22;62291;47.554;8.504;2022-11-11T00:02:03;6.20;99.90
73939;DHT22;62291;47.554;8.504;2022-11-11T00:04:29;6.20;99.90
73939;DHT22;62291;47.554;8.504;2022-11-11T00:06:54;6.40;99.90
73939;DHT22;62291;47.554;8.504;2022-11-11T00:09:20;6.40;99.90
73939;DHT22;62291;47.554;8.504;2022-11-11T00:11:46;6.40;99.90
73939;DHT22;62291;47.554;8.504;2022-11-11T00:14:11;6.40;99.90
73939;DHT22;62291;47.554;8.504;2022-11-11T00:16:37;6.40;99.90
73939;DHT22;62291;47.554;8.504;2022-11-11T00:19:21;6.40;99.90
73939;DHT22;62291;47.554;8.504;2022-11-11T00:22:19;6.50;99.90
73939;DHT22;62291;47.554;8.504;2022-11-11T00:25:04;6.50;99.90
73939;DHT22;62291;47.554;8.504;2022-11-11T00:27:30;6.60;99.90
73939;DHT22;62291;47.554;8.504;2022-11-11T00:29:56;6.50;99.90
73939;DHT22;62291;47.554;8.504;2022-11-11T00:32:21;6.50;99.90
73939;DHT22;62291;47.554;8.504;2022-11-11T00:34:48;6.60;99.90
73939;DHT22;62291;47.554;8.504;2022-11-11T00:37:36;6.60;99.90
73939;DHT22;62291;47.554;8.504;2022-11-11T00:40:02;6.60;99.90
73939;DHT22;62291;47.554;8.504;2022-11-11T00:42:28;6.60;99.90
73939;DHT22;62291;47.554;8.504;2022-11-11T00:44:54;6.60;99.90
73939;DHT22;62291;47.554;8.504;2022-11-11T00:47:20;6.60;99.90
73939;DHT22;62291;47.554;8.504;2022-11-11T00:50:15;6.60;99.90
73939;DHT22;62291;47.554;8.504;2022-11-11T00:53:00;6.70;99.90
73939;DHT22;62291;47.554;8.504;2022-11-11T00:55:26;6.70;99.90
73939;DHT22;62291;47.554;8.504;2022-11-11T00:57:52;6.70;99.90
73939;DHT22;62291;47.554;8.504;2022-11-11T01:00:17;6.60;99.90
73939;DHT22;62291;47.554;8.504;2022-11-11T01:02:43;6.50;99.90
73939;DHT22;62291;47.554;8.504;2022-11-11T01:05:09;6.40;99.90
73939;DHT22;62291;47.554;8.504;2022-11-11T01:07:34;6.40;99.90
73939;DHT22;62291;47.554;8.504;2022-11-11T01:10:00;6.50;99.90
73939;DHT22;62291;47.554;8.504;2022-11-11T01:12:26;6.60;99.90
73939;DHT22;62291;47.554;8.504;2022-11-11T01:14:51;6.60;99.90
73939;DHT22;62291;47.554;8.504;2022-11-11T01:17:18;6.60;99.90
73939;DHT22;62291;47.554;8.504;2022-11-11T01:19:44;6.70;99.90
73939;DHT22;62291;47.554;8.504;2022-11-11T01:22:09;6.70;99.90
73939;DHT22;62291;47.554;8.504;2022-11-11T01:24:36;6.70;99.90
73939;DHT22;62291;47.554;8.504;2022-11-11T01:27:02;6.70;99.90
73939;DHT22;62291;47.554;8.504;2022-11-11T01:29:28;6.70;99.90
73939;DHT22;62291;47.554;8.504;2022-11-11T01:31:54;6.70;99.90
73939;DHT22;62291;47.554;8.504;2022-11-11T01:34:20;6.80;99.90
73939;DHT22;62291;47.554;8.504;2022-11-11T01:36:45;6.80;99.90
73939;DHT22;62291;47.554;8.504;2022-11-11T01:39:11;6.80;99.90
73939;DHT22;62291;47.554;8.504;2022-11-11T01:41:37;6.80;99.90
73939;DHT22;62291;47.554;8.504;2022-11-11T01:46:57;6.50;99.90
73939;DHT22;62291;47.554;8.504;2022-11-11T01:52:11;6.40;99.90
73939;DHT22;62291;47.554;8.504;2022-11-11T01:57:43;6.40;99.90
73939;DHT22;62291;47.554;8.504;2022-11-11T02:00:12;6.30;99.90
73939;DHT22;62291;47.554;8.504;2022-11-11T02:02:44;6.30;99.90
73939;DHT22;62291;47.554;8.504;2022-11-11T02:05:13;6.40;99.90
73939;DHT22;62291;47.554;8.504;2022-11-11T02:08:00;6.50;99.90
73939;DHT22;62291;47.554;8.504;2022-11-11T02:10:29;6.40;99.90
73939;DHT22;62291;47.554;8.504;2022-11-11T02:12:56;6.30;99.90
73939;DHT22;62291;47.554;8.504;2022-11-11T02:15:40;6.30;99.90
73939;DHT22;62291;47.554;8.504;2022-11-11T02:18:06;6.30;99.90
73939;DHT22;62291;47.554;8.504;2022-11-11T02:20:35;6.30;99.90
73939;DHT22;62291;47.554;8.504;2022-11-11T02:25:45;6.30;99.90
73939;DHT22;62291;47.554;8.504;2022-11-11T02:28:13;6.30;99.90
73939;DHT22;62291;47.554;8.504;2022-11-11T02:30:39;6.40;99.90
73939;DHT22;62291;47.554;8.504;2022-11-11T02:33:05;6.40;99.90
73939;DHT22;62291;47.554;8.504;2022-11-11T02:35:32;6.50;99.90
73939;DHT22;62291;47.554;8.504;2022-11-11T02:37:59;6.50;99.90
73939;DHT22;62291;47.554;8.504;2022-11-11T02:40:40;6.50;99.90
73939;DHT22;62291;47.554;8.504;2022-11-11T02:43:26;6.60;99.90
73939;DHT22;62291;47.554;8.504;2022-11-11T02:45:52;6.70;99.90
73939;DHT22;62291;47.554;8.504;2022-11-11T02:48:18;6.60;99.90
73939;DHT22;62291;47.554;8.504;2022-11-11T02:50:44;6.70;99.90
73939;DHT22;62291;47.554;8.504;2022-11-11T02:53:10;6.80;99.90
73939;DHT22;62291;47.554;8.504;2022-11-11T02:55:35;6.90;99.90
73939;DHT22;62291;47.554;8.504;2022-11-11T02:58:01;7.00;99.90
73939;DHT22;62291;47.554;8.504;2022-11-11T03:00:27;7.00;99.90
73939;DHT22;62291;47.554;8.504;2022-11-11T03:02:53;7.00;99.90
73939;DHT22;62291;47.554;8.504;2022-11-11T03:05:18;6.90;99.90
73939;DHT22;62291;47.554;8.504;2022-11-11T03:07:44;6.80;99.90
73939;DHT22;62291;47.554;8.504;2022-11-11T03:10:10;6.80;99.90
73939;DHT22;62291;47.554;8.504;2022-11-11T03:12:36;6.80;99.90
73939;DHT22;62291;47.554;8.504;2022-11-11T03:15:02;6.80;99.90
73939;DHT22;62291;47.554;8.504;2022-11-11T03:17:28;6.80;99.90
73939;DHT22;62291;47.554;8.504;2022-11-11T03:20:08;7.00;99.90
73939;DHT22;62291;47.554;8.504;2022-11-11T03:23:04;7.10;99.90
73939;DHT22;62291;47.554;8.504;2022-11-11T03:25:30;7.20;99.90
73939;DHT22;62291;47.554;8.504;2022-11-11T03:28:09;7.20;99.90
73939;DHT22;62291;47.554;8.504;2022-11-11T03:30:37;7.30;99.90
73939;DHT22;62291;47.554;8.504;2022-11-11T03:33:03;7.30;99.90
73939;DHT22;62291;47.554;8.504;2022-11-11T03:35:29;7.20;99.90
73939;DHT22;62291;47.554;8.504;2022-11-11T03:37:55;7.20;99.90
73939;DHT22;62291;47.554;8.504;2022-11-11T03:40:39;7.20;99.90
73939;DHT22;62291;47.554;8.504;2022-11-11T03:43:05;7.30;99.90
73939;DHT22;62291;47.554;8.504;2022-11-11T03:45:31;7.40;99.90
73939;DHT22;62291;47.554;8.504;2022-11-11T03:47:57;7.40;99.90
73939;DHT22;62291;47.554;8.504;2022-11-11T03:50:23;7.40;99.90
73939;DHT22;62291;47.554;8.504;2022-11-11T03:52:49;7.40;99.90
73939;DHT22;62291;47.554;8.504;2022-11-11T03:55:15;7.40;99.90
73939;DHT22;62291;47.554;8.504;2022-11-11T03:57:42;7.40;99.90
73939;DHT22;62291;47.554;8.504;2022-11-11T04:00:13;7.30;99.90
73939;DHT22;62291;47.554;8.504;2022-11-11T04:02:39;7.20;99.90
73939;DHT22;62291;47.554;8.504;2022-11-11T04:05:24;7.10;99.90
73939;DHT22;62291;47.554;8.504;2022-11-11T04:08:13;7.10;99.90
73939;DHT22;62291;47.554;8.504;2022-11-11T04:10:58;7.10;99.90
73939;DHT22;62291;47.554;8.504;2022-11-11T04:13:26;7.20;99.90
73939;DHT22;62291;47.554;8.504;2022-11-11T04:16:27;7.20;99.90
73939;DHT22;62291;47.554;8.504;2022-11-11T04:18:53;7.20;99.90
73939;DHT22;62291;47.554;8.504;2022-11-11T04:21:37;7.20;99.90
73939;DHT22;62291;47.554;8.504;2022-11-11T04:24:14;7.30;99.90
73939;DHT22;62291;47.554;8.504;2022-11-11T04:27:00;7.40;99.90
73939;DHT22;62291;47.554;8.504;2022-11-11T04:29:26;7.30;99.90
73939;DHT22;62291;47.554;8.504;2022-11-11T04:31:53;7.40;99.90
73939;DHT22;62291;47.554;8.504;2022-11-11T04:34:38;7.40;99.90
73939;DHT22;62291;47.554;8.504;2022-11-11T04:37:04;7.40;99.90
73939;DHT22;62291;47.554;8.504;2022-11-11T04:39:29;7.50;99.90
73939;DHT22;62291;47.554;8.504;2022-11-11T04:42:14;7.60;99.90
73939;DHT22;62291;47.554;8.504;2022-11-11T04:44:39;7.70;99.90
73939;DHT22;62291;47.554;8.504;2022-11-11T04:47:38;7.70;99.90
73939;DHT22;62291;47.554;8.504;2022-11-11T04:50:04;7.70;99.90
73939;DHT22;62291;47.554;8.504;2022-11-11T04:52:30;7.70;99.90
73939;DHT22;62291;47.554;8.504;2022-11-11T04:54:57;7.80;99.90
73939;DHT22;62291;47.554;8.504;2022-11-11T04:57:46;7.80;99.90
73939;DHT22;62291;47.554;8.504;2022-11-11T05:00:14;7.80;99.90
73939;DHT22;62291;47.554;8.504;2022-11-11T05:02:41;7.80;99.90
73939;DHT22;62291;47.554;8.504;2022-11-11T05:05:26;7.80;99.90
73939;DHT22;62291;47.554;8.504;2022-11-11T05:07:52;7.90;99.90
73939;DHT22;62291;47.554;8.504;2022-11-11T05:10:36;7.90;99.90
73939;DHT22;62291;47.554;8.504;2022-11-11T05:13:02;7.90;99.90
73939;DHT22;62291;47.554;8.504;2022-11-11T05:15:47;7.90;99.90
73939;DHT22;62291;47.554;8.504;2022-11-11T05:18:32;7.80;99.90
73939;DHT22;62291;47.554;8.504;2022-11-11T05:21:24;7.70;99.90
73939;DHT22;62291;47.554;8.504;2022-11-11T05:23:50;7.60;99.90
73939;DHT22;62291;47.554;8.504;2022-11-11T05:26:35;7.60;99.90
73939;DHT22;62291;47.554;8.504;2022-11-11T05:29:01;7.60;99.90
73939;DHT22;62291;47.554;8.504;2022-11-11T05:31:28;7.50;99.90
73939;DHT22;62291;47.554;8.504;2022-11-11T05:33:54;7.50;99.90
73939;DHT22;62291;47.554;8.504;2022-11-11T05:36:20;7.50;99.90
73939;DHT22;62291;47.554;8.504;2022-11-11T05:38:46;7.50;99.90
73939;DHT22;62291;47.554;8.504;2022-11-11T05:41:11;7.50;99.90
73939;DHT22;62291;47.554;8.504;2022-11-11T05:43:37;7.50;99.90
73939;DHT22;62291;47.554;8.504;2022-11-11T05:46:03;7.50;99.90
73939;DHT22;62291;47.554;8.504;2022-11-11T05:48:30;7.60;99.90
73939;DHT22;62291;47.554;8.504;2022-11-11T05:50:59;7.60;99.90
73939;DHT22;62291;47.554;8.504;2022-11-11T05:53:25;7.50;99.90
73939;DHT22;62291;47.554;8.504;2022-11-11T05:55:50;7.50;99.90
73939;DHT22;62291;47.554;8.504;2022-11-11T05:58:17;7.60;99.90
73939;DHT22;62291;47.554;8.504;2022-11-11T06:00:43;7.60;99.90
73939;DHT22;62291;47.554;8.504;2022-11-11T06:03:09;7.60;99.90
73939;DHT22;62291;47.554;8.504;2022-11-11T06:05:38;7.60;99.90
73939;DHT22;62291;47.554;8.504;2022-11-11T06:08:04;7.50;99.90
73939;DHT22;62291;47.554;8.504;2022-11-11T06:10:30;7.50;99.90
73939;DHT22;62291;47.554;8.504;2022-11-11T06:12:58;7.60;99.90
73939;DHT22;62291;47.554;8.504;2022-11-11T06:15:38;7.50;99.90
73939;DHT22;62291;47.554;8.504;2022-11-11T06:18:05;7.60;99.90
73939;DHT22;62291;47.554;8.504;2022-11-11T06:20:32;7.60;99.90
73939;DHT22;62291;47.554;8.504;2022-11-11T06:23:00;7.50;99.90
73939;DHT22;62291;47.554;8.504;2022-11-11T06:25:31;7.60;99.90
73939;DHT22;62291;47.554;8.504;2022-11-11T06:28:17;7.50;99.90
73939;DHT22;62291;47.554;8.504;2022-11-11T06:30:44;7.50;99.90
73939;DHT22;62291;47.554;8.504;2022-11-11T06:33:10;7.50;99.90
73939;DHT22;62291;47.554;8.504;2022-11-11T06:35:37;7.60;99.90
73939;DHT22;62291;47.554;8.504;2022-11-11T06:38:04;7.60;99.90
73939;DHT22;62291;47.554;8.504;2022-11-11T06:40:31;7.60;99.90
73939;DHT22;62291;47.554;8.504;2022-11-11T06:42:57;7.60;99.90
73939;DHT22;62291;47.554;8.504;2022-11-11T06:45:25;7.60;99.90
73939;DHT22;62291;47.554;8.504;2022-11-11T06:47:51;7.70;99.90
73939;DHT22;62291;47.554;8.504;2022-11-11T06:50:17;7.70;99.90
73939;DHT22;62291;47.554;8.504;2022-11-11T06:52:43;7.70;99.90
73939;DHT22;62291;47.554;8.504;2022-11-11T06:55:09;7.70;99.90
73939;DHT22;62291;47.554;8.504;2022-11-11T06:57:35;7.70;99.90
73939;DHT22;62291;47.554;8.504;2022-11-11T07:00:03;7.70;99.90
73939;DHT22;62291;47.554;8.504;2022-11-11T07:02:29;7.70;99.90
73939;DHT22;62291;47.554;8.504;2022-11-11T07:04:55;7.70;99.90
73939;DHT22;62291;47.554;8.504;2022-11-11T07:07:21;7.80;99.90
73939;DHT22;62291;47.554;8.504;2022-11-11T07:09:47;8.00;99.90
73939;DHT22;62291;47.554;8.504;2022-11-11T07:12:13;8.00;99.90
73939;DHT22;62291;47.554;8.504;2022-11-11T07:14:38;8.00;99.90
73939;DHT22;62291;47.554;8.504;2022-11-11T07:17:04;8.00;99.90
73939;DHT22;62291;47.554;8.504;2022-11-11T07:19:30;8.00;99.90
73939;DHT22;62291;47.554;8.504;2022-11-11T07:21:56;8.00;99.90
73939;DHT22;62291;47.554;8.504;2022-11-11T07:24:21;8.00;99.90
73939;DHT22;62291;47.554;8.504;2022-11-11T07:26:47;8.00;99.90
73939;DHT22;62291;47.554;8.504;2022-11-11T07:29:13;8.10;99.90
73939;DHT22;62291;47.554;8.504;2022-11-11T07:31:40;8.10;99.90
73939;DHT22;62291;47.554;8.504;2022-11-11T07:34:06;8.10;99.90
73939;DHT22;62291;47.554;8.504;2022-11-11T07:36:32;8.10;99.90
73939;DHT22;62291;47.554;8.504;2022-11-11T07:38:57;8.10;99.90
73939;DHT22;62291;47.554;8.504;2022-11-11T07:41:23;8.20;99.90
73939;DHT22;62291;47.554;8.504;2022-11-11T07:43:49;8.20;99.90
73939;DHT22;62291;47.554;8.504;2022-11-11T07:46:15;8.30;99.90
73939;DHT22;62291;47.554;8.504;2022-11-11T07:48:41;8.40;99.90
73939;DHT22;62291;47.554;8.504;2022-11-11T07:51:06;8.60;99.90
73939;DHT22;62291;47.554;8.504;2022-11-11T07:53:32;8.70;99.90
73939;DHT22;62291;47.554;8.504;2022-11-11T07:55:58;8.70;99.90
73939;DHT22;62291;47.554;8.504;2022-11-11T07:58:24;8.70;99.90
73939;DHT22;62291;47.554;8.504;2022-11-11T08:00:50;8.80;99.90
73939;DHT22;62291;47.554;8.504;2022-11-11T08:03:16;8.90;99.90
73939;DHT22;62291;47.554;8.504;2022-11-11T08:05:42;8.90;99.90
73939;DHT22;62291;47.554;8.504;2022-11-11T08:08:09;9.00;99.90
73939;DHT22;62291;47.554;8.504;2022-11-11T08:10:35;9.00;99.90
73939;DHT22;62291;47.554;8.504;2022-11-11T08:13:01;9.10;99.90
73939;DHT22;62291;47.554;8.504;2022-11-11T08:15:46;9.20;99.90
73939;DHT22;62291;47.554;8.504;2022-11-11T08:18:12;9.10;99.90
73939;DHT22;62291;47.554;8.504;2022-11-11T08:20:38;9.00;99.90
73939;DHT22;62291;47.554;8.504;2022-11-11T08:23:03;9.00;99.90
73939;DHT22;62291;47.554;8.504;2022-11-11T08:25:30;8.90;99.90
73939;DHT22;62291;47.554;8.504;2022-11-11T08:27:57;8.90;99.90
73939;DHT22;62291;47.554;8.504;2022-11-11T08:30:23;8.90;99.90
73939;DHT22;62291;47.554;8.504;2022-11-11T08:32:58;8.90;99.90
73939;DHT22;62291;47.554;8.504;2022-11-11T08:35:25;8.90;99.90
73939;DHT22;62291;47.554;8.504;2022-11-11T08:37:52;8.90;99.90
73939;DHT22;62291;47.554;8.504;2022-11-11T08:40:17;8.90;99.90
73939;DHT22;62291;47.554;8.504;2022-11-11T08:42:44;9.00;99.90
73939;DHT22;62291;47.554;8.504;2022-11-11T08:45:09;9.20;99.90
73939;DHT22;62291;47.554;8.504;2022-11-11T08:47:36;9.40;99.90
73939;DHT22;62291;47.554;8.504;2022-11-11T08:50:03;9.50;99.90
73939;DHT22;62291;47.554;8.504;2022-11-11T08:52:29;9.50;99.90
73939;DHT22;62291;47.554;8.504;2022-11-11T08:54:55;9.40;99.90
73939;DHT22;62291;47.554;8.504;2022-11-11T08:57:21;9.40;99.90
73939;DHT22;62291;47.554;8.504;2022-11-11T08:59:46;9.40;99.90
73939;DHT22;62291;47.554;8.504;2022-11-11T09:02:13;9.40;99.90
73939;DHT22;62291;47.554;8.504;2022-11-11T09:04:39;9.40;99.90
73939;DHT22;62291;47.554;8.504;2022-11-11T09:07:06;9.40;99.90
73939;DHT22;62291;47.554;8.504;2022-11-11T09:09:32;9.50;99.90
73939;DHT22;62291;47.554;8.504;2022-11-11T09:11:58;9.50;99.90
73939;DHT22;62291;47.554;8.504;2022-11-11T09:14:24;9.50;99.90
73939;DHT22;62291;47.554;8.504;2022-11-11T09:16:49;9.60;99.90
73939;DHT22;62291;47.554;8.504;2022-11-11T09:19:15;9.60;99.90
73939;DHT22;62291;47.554;8.504;2022-11-11T09:21:41;9.50;99.90
73939;DHT22;62291;47.554;8.504;2022-11-11T09:24:06;9.50;99.90
73939;DHT22;62291;47.554;8.504;2022-11-11T09:26:32;9.50;99.90
73939;DHT22;62291;47.554;8.504;2022-11-11T09:28:58;9.60;99.90
73939;DHT22;62291;47.554;8.504;2022-11-11T09:31:24;9.70;99.90
73939;DHT22;62291;47.554;8.504;2022-11-11T09:33:50;9.80;99.90
73939;DHT22;62291;47.554;8.504;2022-11-11T09:36:19;9.80;99.90
73939;DHT22;62291;47.554;8.504;2022-11-11T09:38:45;9.90;99.90
73939;DHT22;62291;47.554;8.504;2022-11-11T09:41:18;9.90;99.90
73939;DHT22;62291;47.554;8.504;2022-11-11T09:43:57;9.90;99.90
73939;DHT22;62291;47.554;8.504;2022-11-11T09:46:37;10.00;99.90
73939;DHT22;62291;47.554;8.504;2022-11-11T09:52:04;10.20;99.90
73939;DHT22;62291;47.554;8.504;2022-11-11T09:54:39;10.20;99.90
73939;DHT22;62291;47.554;8.504;2022-11-11T09:57:22;10.20;99.90
73939;DHT22;62291;47.554;8.504;2022-11-11T09:59:52;10.20;99.90
73939;DHT22;62291;47.554;8.504;2022-11-11T10:02:38;10.40;99.90
73939;DHT22;62291;47.554;8.504;2022-11-11T10:05:13;10.40;99.90
73939;DHT22;62291;47.554;8.504;2022-11-11T10:10:35;10.30;99.90
73939;DHT22;62291;47.554;8.504;2022-11-11T10:13:02;10.40;99.90
73939;DHT22;62291;47.554;8.504;2022-11-11T10:15:56;10.40;99.90
73939;DHT22;62291;47.554;8.504;2022-11-11T10:21:20;10.50;99.90
73939;DHT22;62291;47.554;8.504;2022-11-11T10:23:51;10.60;99.90
73939;DHT22;62291;47.554;8.504;2022-11-11T10:26:38;10.60;99.90
73939;DHT22;62291;47.554;8.504;2022-11-11T10:29:21;10.70;99.90
73939;DHT22;62291;47.554;8.504;2022-11-11T10:32:09;10.80;99.90
73939;DHT22;62291;47.554;8.504;2022-11-11T10:34:37;10.80;99.90
73939;DHT22;62291;47.554;8.504;2022-11-11T10:37:08;10.80;99.90
73939;DHT22;62291;47.554;8.504;2022-11-11T10:40:06;10.80;99.90
73939;DHT22;62291;47.554;8.504;2022-11-11T10:42:35;10.80;99.90
73939;DHT22;62291;47.554;8.504;2022-11-11T10:45:02;10.90;99.90
73939;DHT22;62291;47.554;8.504;2022-11-11T10:47:56;10.90;99.90
73939;DHT22;62291;47.554;8.504;2022-11-11T10:50:29;11.00;99.90
73939;DHT22;62291;47.554;8.504;2022-11-11T10:53:13;11.00;99.90
73939;DHT22;62291;47.554;8.504;2022-11-11T10:55:59;11.10;99.90
73939;DHT22;62291;47.554;8.504;2022-11-11T10:58:31;11.20;99.90
73939;DHT22;62291;47.554;8.504;2022-11-11T11:01:00;11.10;99.90
73939;DHT22;62291;47.554;8.504;2022-11-11T11:03:35;11.10;99.90
73939;DHT22;62291;47.554;8.504;2022-11-11T11:06:07;11.20;99.90
73939;DHT22;62291;47.554;8.504;2022-11-11T11:08:38;11.30;99.90
73939;DHT22;62291;47.554;8.504;2022-11-11T11:11:10;11.40;99.90
73939;DHT22;62291;47.554;8.504;2022-11-11T11:16:33;11.40;99.90
73939;DHT22;62291;47.554;8.504;2022-11-11T11:19:20;11.50;99.90
73939;DHT22;62291;47.554;8.504;2022-11-11T11:21:54;11.70;99.90
73939;DHT22;62291;47.554;8.504;2022-11-11T11:24:22;11.70;99.90
73939;DHT22;62291;47.554;8.504;2022-11-11T11:26:50;11.60;99.90
73939;DHT22;62291;47.554;8.504;2022-11-11T11:31:53;11.60;99.90
73939;DHT22;62291;47.554;8.504;2022-11-11T11:34:18;11.60;99.90
73939;DHT22;62291;47.554;8.504;2022-11-11T11:36:59;11.60;99.90
73939;DHT22;62291;47.554;8.504;2022-11-11T11:39:36;11.70;99.90
73939;DHT22;62291;47.554;8.504;2022-11-11T11:42:02;11.80;99.90
73939;DHT22;62291;47.554;8.504;2022-11-11T11:44:33;12.00;99.90
73939;DHT22;62291;47.554;8.504;2022-11-11T11:53:06;12.00;99.90
73939;DHT22;62291;47.554;8.504;2022-11-11T11:55:42;12.00;99.90
73939;DHT22;62291;47.554;8.504;2022-11-11T11:58:32;12.00;99.90
73939;DHT22;62291;47.554;8.504;2022-11-11T12:01:03;12.10;99.90
73939;DHT22;62291;47.554;8.504;2022-11-11T12:20:54;12.00;99.90
73939;DHT22;62291;47.554;8.504;2022-11-11T12:23:42;11.90;99.90
73939;DHT22;62291;47.554;8.504;2022-11-11T12:27:12;11.80;99.90
73939;DHT22;62291;47.554;8.504;2022-11-11T12:40:21;12.00;99.90
73939;DHT22;62291;47.554;8.504;2022-11-11T12:43:02;12.10;99.90
73939;DHT22;62291;47.554;8.504;2022-11-11T13:05:40;11.90;99.90
73939;DHT22;62291;47.554;8.504;2022-11-11T13:11:14;11.80;99.90
73939;DHT22;62291;47.554;8.504;2022-11-11T13:16:08;11.70;99.90
73939;DHT22;62291;47.554;8.504;2022-11-11T13:18:54;11.80;99.90
73939;DHT22;62291;47.554;8.504;2022-11-11T13:24:12;11.70;99.90
73939;DHT22;62291;47.554;8.504;2022-11-11T13:26:43;11.70;99.90
73939;DHT22;62291;47.554;8.504;2022-11-11T13:31:54;11.70;99.90
73939;DHT22;62291;47.554;8.504;2022-11-11T13:34:21;11.70;99.90
73939;DHT22;62291;47.554;8.504;2022-11-11T13:36:53;11.70;99.90
73939;DHT22;62291;47.554;8.504;2022-11-11T13:39:27;11.70;99.90
73939;DHT22;62291;47.554;8.504;2022-11-11T13:41:55;11.70;99.90
73939;DHT22;62291;47.554;8.504;2022-11-11T13:44:29;11.70;99.90
73939;DHT22;62291;47.554;8.504;2022-11-11T13:47:02;11.70;99.90
73939;DHT22;62291;47.554;8.504;2022-11-11T13:49:36;11.70;99.90
73939;DHT22;62291;47.554;8.504;2022-11-11T13:52:20;11.60;99.90
73939;DHT22;62291;47.554;8.504;2022-11-11T13:54:59;11.50;99.90
73939;DHT22;62291;47.554;8.504;2022-11-11T13:57:26;11.50;99.90
73939;DHT22;62291;47.554;8.504;2022-11-11T14:00:03;11.50;99.90
73939;DHT22;62291;47.554;8.504;2022-11-11T14:02:34;11.50;99.90
73939;DHT22;62291;47.554;8.504;2022-11-11T14:12:49;11.40;99.90
73939;DHT22;62291;47.554;8.504;2022-11-11T14:15:35;11.40;99.90
73939;DHT22;62291;47.554;8.504;2022-11-11T14:18:02;11.40;99.90
73939;DHT22;62291;47.554;8.504;2022-11-11T14:25:43;11.30;99.90
73939;DHT22;62291;47.554;8.504;2022-11-11T14:30:56;11.30;99.90
73939;DHT22;62291;47.554;8.504;2022-11-11T14:41:49;11.20;99.90
73939;DHT22;62291;47.554;8.504;2022-11-11T14:49:52;11.10;99.90
73939;DHT22;62291;47.554;8.504;2022-11-11T14:52:40;11.10;99.90
73939;DHT22;62291;47.554;8.504;2022-11-11T14:55:19;11.10;99.90
73939;DHT22;62291;47.554;8.504;2022-11-11T15:00:20;11.00;99.90
73939;DHT22;62291;47.554;8.504;2022-11-11T15:02:53;10.90;99.90
73939;DHT22;62291;47.554;8.504;2022-11-11T15:05:45;10.90;99.90
73939;DHT22;62291;47.554;8.504;2022-11-11T15:21:19;10.70;99.90
73939;DHT22;62291;47.554;8.504;2022-11-11T15:24:12;10.70;99.90
73939;DHT22;62291;47.554;8.504;2022-11-11T15:30:08;10.50;99.90
73939;DHT22;62291;47.554;8.504;2022-11-11T15:35:41;10.60;99.90
73939;DHT22;62291;47.554;8.504;2022-11-11T15:38:16;10.60;99.90
73939;DHT22;62291;47.554;8.504;2022-11-11T15:40:48;10.50;99.90
73939;DHT22;62291;47.554;8.504;2022-11-11T15:43:29;10.50;99.90
73939;DHT22;62291;47.554;8.504;2022-11-11T15:45:58;10.50;99.90
73939;DHT22;62291;47.554;8.504;2022-11-11T15:48:26;10.50;99.90
73939;DHT22;62291;47.554;8.504;2022-11-11T15:50:53;10.40;99.90
73939;DHT22;62291;47.554;8.504;2022-11-11T15:53:25;10.30;99.90
73939;DHT22;62291;47.554;8.504;2022-11-11T15:55:56;10.40;99.90
73939;DHT22;62291;47.554;8.504;2022-11-11T15:58:27;10.40;99.90
73939;DHT22;62291;47.554;8.504;2022-11-11T16:00:54;10.40;99.90
73939;DHT22;62291;47.554;8.504;2022-11-11T16:03:41;10.40;99.90
73939;DHT22;62291;47.554;8.504;2022-11-11T16:06:10;10.30;99.90
73939;DHT22;62291;47.554;8.504;2022-11-11T16:08:40;10.30;99.90
73939;DHT22;62291;47.554;8.504;2022-11-11T16:11:12;10.30;99.90
73939;DHT22;62291;47.554;8.504;2022-11-11T16:16:22;10.30;99.90
73939;DHT22;62291;47.554;8.504;2022-11-11T16:21:20;10.40;99.90
73939;DHT22;62291;47.554;8.504;2022-11-11T16:23:48;10.40;99.90
73939;DHT22;62291;47.554;8.504;2022-11-11T16:26:15;10.30;99.90
73939;DHT22;62291;47.554;8.504;2022-11-11T16:28:51;10.30;99.90
73939;DHT22;62291;47.554;8.504;2022-11-11T16:33:59;10.30;99.90
73939;DHT22;62291;47.554;8.504;2022-11-11T16:36:25;10.30;99.90
73939;DHT22;62291;47.554;8.504;2022-11-11T16:38:51;10.30;99.90
73939;DHT22;62291;47.554;8.504;2022-11-11T16:41:24;10.30;99.90
73939;DHT22;62291;47.554;8.504;2022-11-11T16:43:50;10.30;99.90
73939;DHT22;62291;47.554;8.504;2022-11-11T16:49:35;10.30;99.90
73939;DHT22;62291;47.554;8.504;2022-11-11T16:52:10;10.30;99.90
73939;DHT22;62291;47.554;8.504;2022-11-11T16:54:47;10.30;99.90
73939;DHT22;62291;47.554;8.504;2022-11-11T16:57:29;10.30;99.90
73939;DHT22;62291;47.554;8.504;2022-11-11T17:00:02;10.20;99.90
73939;DHT22;62291;47.554;8.504;2022-11-11T17:02:29;10.30;99.90
73939;DHT22;62291;47.554;8.504;2022-11-11T17:04:56;10.20;99.90
73939;DHT22;62291;47.554;8.504;2022-11-11T17:07:41;10.20;99.90
73939;DHT22;62291;47.554;8.504;2022-11-11T17:12:37;10.20;99.90
73939;DHT22;62291;47.554;8.504;2022-11-11T17:15:09;10.30;99.90
73939;DHT22;62291;47.554;8.504;2022-11-11T17:17:36;10.30;99.90
73939;DHT22;62291;47.554;8.504;2022-11-11T17:20:07;10.40;99.90
73939;DHT22;62291;47.554;8.504;2022-11-11T17:22:33;10.30;99.90
73939;DHT22;62291;47.554;8.504;2022-11-11T17:24:59;10.20;99.90
73939;DHT22;62291;47.554;8.504;2022-11-11T17:27:28;10.20;99.90
73939;DHT22;62291;47.554;8.504;2022-11-11T17:29:55;10.30;99.90
73939;DHT22;62291;47.554;8.504;2022-11-11T17:32:21;10.30;99.90
73939;DHT22;62291;47.554;8.504;2022-11-11T17:34:46;10.30;99.90
73939;DHT22;62291;47.554;8.504;2022-11-11T17:37:12;10.30;99.90
73939;DHT22;62291;47.554;8.504;2022-11-11T17:39:37;10.20;99.90
73939;DHT22;62291;47.554;8.504;2022-11-11T17:42:07;10.20;99.90
73939;DHT22;62291;47.554;8.504;2022-11-11T17:44:33;10.30;99.90
73939;DHT22;62291;47.554;8.504;2022-11-11T17:46:59;10.20;99.90
73939;DHT22;62291;47.554;8.504;2022-11-11T17:49:24;10.10;99.90
73939;DHT22;62291;47.554;8.504;2022-11-11T17:51:50;10.10;99.90
73939;DHT22;62291;47.554;8.504;2022-11-11T17:54:15;10.00;99.90
73939;DHT22;62291;47.554;8.504;2022-11-11T17:56:41;10.00;99.90
73939;DHT22;62291;47.554;8.504;2022-11-11T17:59:09;10.00;99.90
73939;DHT22;62291;47.554;8.504;2022-11-11T18:01:35;10.10;99.90
73939;DHT22;62291;47.554;8.504;2022-11-11T18:04:01;10.10;99.90
73939;DHT22;62291;47.554;8.504;2022-11-11T18:06:30;10.10;99.90
73939;DHT22;62291;47.554;8.504;2022-11-11T18:08:56;10.00;99.90
73939;DHT22;62291;47.554;8.504;2022-11-11T18:11:22;10.00;99.90
73939;DHT22;62291;47.554;8.504;2022-11-11T18:13:47;10.00;99.90
73939;DHT22;62291;47.554;8.504;2022-11-11T18:16:14;10.00;99.90
73939;DHT22;62291;47.554;8.504;2022-11-11T18:18:41;10.00;99.90
73939;DHT22;62291;47.554;8.504;2022-11-11T18:21:07;10.00;99.90
73939;DHT22;62291;47.554;8.504;2022-11-11T18:23:35;9.90;99.90
73939;DHT22;62291;47.554;8.504;2022-11-11T18:26:03;9.90;99.90
73939;DHT22;62291;47.554;8.504;2022-11-11T18:28:34;9.90;99.90
73939;DHT22;62291;47.554;8.504;2022-11-11T18:31:01;9.90;99.90
73939;DHT22;62291;47.554;8.504;2022-11-11T18:33:27;9.80;99.90
73939;DHT22;62291;47.554;8.504;2022-11-11T18:35:53;9.90;99.90
73939;DHT22;62291;47.554;8.504;2022-11-11T18:38:19;9.80;99.90